Time;durP1;ratioP1;P1;durP2;ratioP2;P2;SDS_P1;SDS_P2;PMS_P1;PMS_P2;Temp;Humidity;BMP_temperature;BMP_pressure;BME280_temperature;BME280_humidity;BME280_pressure;Samples;Min_cycle;Max_cycle;Signal;HPM_P1;HPM_P2
2022/06/19 00:00:21;;;;;;;13.33;3.17;;;22.20;74.80;;;;;;5051459;28;20424;-74
2022/06/19 00:03:08;;;;;;;22.70;4.27;;;22.30;72.40;;;;;;5051745;28;20529;-74
2022/06/19 00:05:54;;;;;;;15.47;3.40;;;22.30;71.30;;;;;;5041909;28;20564;-75
2022/06/19 00:08:40;;;;;;;11.63;4.57;;;22.30;72.30;;;;;;5050504;28;20427;-74
2022/06/19 00:11:27;;;;;;;11.83;3.60;;;22.40;72.40;;;;;;5050695;28;20796;-75
2022/06/19 00:14:14;;;;;;;15.70;4.00;;;22.40;72.10;;;;;;5051957;28;20483;-74
2022/06/19 00:17:00;;;;;;;12.03;4.47;;;22.40;72.30;;;;;;5047875;28;20476;-74
2022/06/19 00:19:45;;;;;;;15.57;3.83;;;22.40;72.80;;;;;;5051619;28;20777;-74
2022/06/19 00:22:31;;;;;;;16.70;3.57;;;22.30;73.20;;;;;;5051434;28;20622;-75
2022/06/19 00:25:16;;;;;;;11.03;3.73;;;22.30;73.80;;;;;;5048969;28;20536;-74
2022/06/19 00:28:02;;;;;;;22.73;5.50;;;22.30;73.60;;;;;;5052346;28;20940;-75
2022/06/19 00:30:49;;;;;;;16.67;3.90;;;22.20;73.90;;;;;;5046947;28;20432;-73
2022/06/19 00:33:34;;;;;;;11.03;4.10;;;22.20;73.70;;;;;;5048049;28;20419;-74
2022/06/19 00:36:21;;;;;;;14.80;4.30;;;22.20;73.60;;;;;;5054884;28;20572;-75
2022/06/19 00:39:06;;;;;;;22.30;4.43;;;22.30;69.80;;;;;;5057544;28;20486;-75
2022/06/19 00:41:52;;;;;;;16.47;4.07;;;22.60;66.40;;;;;;5056979;28;20479;-75
2022/06/19 00:44:38;;;;;;;12.20;3.50;;;22.90;57.40;;;;;;5053728;28;20424;-75
2022/06/19 00:47:27;;;;;;;15.97;3.80;;;23.00;64.00;;;;;;5056078;28;20841;-75
2022/06/19 00:50:23;;;;;;;19.57;3.30;;;23.10;61.60;;;;;;5054473;28;20450;-75
2022/06/19 00:53:14;;;;;;;15.97;3.80;;;23.20;61.50;;;;;;5055390;28;20427;-75
2022/06/19 00:56:01;;;;;;;20.53;3.30;;;23.20;61.70;;;;;;5055601;28;20475;-74
2022/06/19 00:58:50;;;;;;;12.87;4.00;;;23.40;57.00;;;;;;5054758;28;20423;-74
2022/06/19 01:01:36;;;;;;;15.00;3.87;;;23.40;56.90;;;;;;5055139;28;20427;-74
2022/06/19 01:04:28;;;;;;;15.60;3.63;;;23.50;55.70;;;;;;5053144;28;20436;-75
2022/06/19 01:07:15;;;;;;;15.20;3.40;;;23.70;56.60;;;;;;5052856;28;20830;-75
2022/06/19 01:10:00;;;;;;;15.90;3.80;;;23.80;52.00;;;;;;5054716;28;20435;-74
2022/06/19 01:12:47;;;;;;;15.93;3.73;;;23.80;53.90;;;;;;5061341;28;20427;-75
2022/06/19 01:15:34;;;;;;;14.97;3.67;;;23.90;54.10;;;;;;5050752;28;20494;-74
2022/06/19 01:18:20;;;;;;;18.90;3.97;;;23.90;53.40;;;;;;5052856;28;20420;-74
2022/06/19 01:21:14;;;;;;;15.70;3.93;;;24.00;52.90;;;;;;5054170;28;20427;-75
2022/06/19 01:24:08;;;;;;;17.07;4.07;;;24.00;53.00;;;;;;5063343;28;20497;-74
2022/06/19 01:26:59;;;;;;;13.03;3.20;;;24.00;50.60;;;;;;5054240;28;20929;-74
2022/06/19 01:29:44;;;;;;;15.50;4.13;;;24.00;52.90;;;;;;5051735;28;20599;-75
2022/06/19 01:32:30;;;;;;;18.20;3.43;;;23.90;52.70;;;;;;5054317;28;20428;-75
2022/06/19 01:35:17;;;;;;;13.97;3.87;;;23.80;53.60;;;;;;5047187;28;20577;-74
2022/06/19 01:38:07;;;;;;;16.47;4.00;;;23.80;54.30;;;;;;5054047;28;20566;-75
2022/06/19 01:40:56;;;;;;;12.83;3.40;;;23.70;54.40;;;;;;5048950;28;20482;-74
2022/06/19 01:43:43;;;;;;;15.20;4.50;;;23.60;54.70;;;;;;5046285;28;20493;-73
2022/06/19 01:46:31;;;;;;;12.73;3.30;;;23.50;57.00;;;;;;5052741;28;20729;-74
2022/06/19 01:49:17;;;;;;;19.13;3.80;;;23.50;59.90;;;;;;5053896;28;20605;-75
2022/06/19 01:52:04;;;;;;;14.77;4.10;;;23.40;60.40;;;;;;5053558;28;20562;-75
2022/06/19 01:54:54;;;;;;;32.83;4.00;;;23.30;61.70;;;;;;5048132;28;20811;-74
2022/06/19 01:57:43;;;;;;;12.77;4.00;;;23.20;61.60;;;;;;5054161;28;20470;-75
2022/06/19 02:00:32;;;;;;;15.33;4.00;;;23.20;62.50;;;;;;5053226;28;20428;-75
2022/06/19 02:03:24;;;;;;;21.80;3.47;;;23.10;61.30;;;;;;5052973;28;20475;-74
2022/06/19 02:06:12;;;;;;;14.20;3.83;;;23.10;61.70;;;;;;5051250;28;20455;-74
2022/06/19 02:08:59;;;;;;;26.23;4.77;;;23.00;63.10;;;;;;5053602;28;20427;-75
2022/06/19 02:11:45;;;;;;;17.83;3.73;;;22.90;64.30;;;;;;5046763;28;20416;-74
2022/06/19 02:14:32;;;;;;;15.80;3.50;;;22.90;63.50;;;;;;5049207;28;20456;-74
2022/06/19 02:17:26;;;;;;;7.87;2.97;;;22.90;64.90;;;;;;5052925;28;20452;-75
2022/06/19 02:20:12;;;;;;;10.43;4.30;;;22.80;65.70;;;;;;5050196;28;20567;-75
2022/06/19 02:23:00;;;;;;;10.53;3.77;;;22.70;65.40;;;;;;5055649;28;20606;-74
2022/06/19 02:25:45;;;;;;;16.20;3.30;;;22.70;66.60;;;;;;5050422;28;20447;-74
2022/06/19 02:28:32;;;;;;;14.80;3.30;;;22.70;67.10;;;;;;5053609;28;20587;-74
2022/06/19 02:31:20;;;;;;;15.33;3.90;;;22.50;68.40;;;;;;5055096;28;20474;-75
2022/06/19 02:34:13;;;;;;;17.83;3.80;;;22.50;67.50;;;;;;5050953;28;20435;-75
2022/06/19 02:37:00;;;;;;;18.83;4.23;;;22.30;67.90;;;;;;5052305;28;20443;-75
2022/06/19 02:39:53;;;;;;;13.33;4.33;;;22.30;68.70;;;;;;5051650;28;20440;-75
2022/06/19 02:42:41;;;;;;;11.40;4.20;;;22.10;69.00;;;;;;5052253;28;20475;-73
2022/06/19 02:45:30;;;;;;;12.43;3.90;;;22.00;70.10;;;;;;5047782;28;20498;-73
2022/06/19 02:48:21;;;;;;;15.87;4.23;;;22.00;71.00;;;;;;5050916;28;20447;-74
2022/06/19 02:51:08;;;;;;;13.23;3.93;;;21.90;71.20;;;;;;5053652;28;20574;-75
2022/06/19 02:53:54;;;;;;;10.43;3.60;;;21.80;71.60;;;;;;5049522;28;21290;-74
2022/06/19 02:56:40;;;;;;;16.30;4.23;;;21.80;72.70;;;;;;5047997;28;20443;-74
2022/06/19 02:59:26;;;;;;;18.27;4.33;;;21.70;73.40;;;;;;5052949;28;20507;-74
2022/06/19 03:02:13;;;;;;;15.47;3.20;;;21.70;73.50;;;;;;5052194;28;20420;-74
2022/06/19 03:05:01;;;;;;;14.07;3.87;;;21.50;74.20;;;;;;5049102;28;20957;-73
2022/06/19 03:07:49;;;;;;;15.33;3.90;;;21.50;75.10;;;;;;5054508;28;20509;-75
2022/06/19 03:10:34;;;;;;;14.27;3.50;;;21.50;75.80;;;;;;5052914;28;20420;-75
2022/06/19 03:13:21;;;;;;;14.70;4.10;;;21.40;75.70;;;;;;5051260;28;20494;-75
2022/06/19 03:16:08;;;;;;;12.70;3.83;;;21.30;76.80;;;;;;5054024;28;20452;-76
2022/06/19 03:18:54;;;;;;;13.27;3.53;;;21.40;77.30;;;;;;5054966;28;20486;-76
2022/06/19 03:21:40;;;;;;;11.93;3.80;;;21.30;77.80;;;;;;5047013;28;20420;-75
2022/06/19 03:24:27;;;;;;;15.23;3.60;;;21.30;78.20;;;;;;5050101;28;20483;-75
2022/06/19 03:27:14;;;;;;;15.57;4.30;;;21.20;78.90;;;;;;5054370;28;20587;-75
2022/06/19 03:30:00;;;;;;;16.23;3.93;;;21.20;79.00;;;;;;5050514;28;20420;-75
2022/06/19 03:32:46;;;;;;;9.30;4.07;;;21.10;79.00;;;;;;5047188;28;20416;-75
2022/06/19 03:35:32;;;;;;;11.17;3.83;;;21.00;79.10;;;;;;5054324;28;20515;-74
2022/06/19 03:38:17;;;;;;;10.20;3.90;;;20.90;80.30;;;;;;5054070;28;20422;-75
2022/06/19 03:41:04;;;;;;;17.00;3.73;;;21.00;80.10;;;;;;5054502;28;20431;-75
2022/06/19 03:43:50;;;;;;;11.77;3.93;;;20.90;80.90;;;;;;5043618;28;20490;-75
2022/06/19 03:46:36;;;;;;;11.17;4.10;;;20.80;81.70;;;;;;5051016;28;20650;-75
2022/06/19 03:49:22;;;;;;;9.97;4.30;;;20.80;81.90;;;;;;5055454;28;20482;-75
2022/06/19 03:52:08;;;;;;;15.90;4.43;;;20.90;82.20;;;;;;5051450;28;20539;-74
2022/06/19 03:54:53;;;;;;;12.57;3.40;;;20.80;81.60;;;;;;5059420;28;20637;-76
2022/06/19 03:57:40;;;;;;;11.23;4.07;;;20.90;82.20;;;;;;5046719;28;20560;-76
2022/06/19 04:00:26;;;;;;;15.93;3.90;;;21.00;82.60;;;;;;5054189;28;20455;-75
2022/06/19 04:03:12;;;;;;;11.60;3.60;;;20.90;82.80;;;;;;5050879;28;20487;-75
2022/06/19 04:05:57;;;;;;;16.73;4.10;;;20.90;83.30;;;;;;5052555;28;20506;-76
2022/06/19 04:08:45;;;;;;;15.47;4.30;;;20.90;84.00;;;;;;5054485;28;20861;-75
2022/06/19 04:11:31;;;;;;;12.93;3.63;;;20.90;84.60;;;;;;5058154;28;20803;-75
2022/06/19 04:14:18;;;;;;;15.93;3.90;;;20.80;84.60;;;;;;5050804;28;20447;-75
2022/06/19 04:17:05;;;;;;;9.20;3.33;;;20.90;86.20;;;;;;5057752;28;20451;-75
2022/06/19 04:19:50;;;;;;;20.33;5.37;;;20.90;86.00;;;;;;5051825;28;20466;-75
2022/06/19 04:22:36;;;;;;;13.43;3.90;;;20.90;86.50;;;;;;5051200;28;20463;-73
2022/06/19 04:25:22;;;;;;;8.97;4.00;;;21.00;86.50;;;;;;5063771;28;20804;-75
2022/06/19 04:28:09;;;;;;;18.43;3.63;;;20.90;86.90;;;;;;5061438;28;20474;-76
2022/06/19 04:30:56;;;;;;;8.63;3.50;;;21.00;87.00;;;;;;5062781;28;20473;-75
2022/06/19 04:33:42;;;;;;;11.83;4.60;;;21.00;87.70;;;;;;5052201;28;20451;-76
2022/06/19 04:36:30;;;;;;;11.60;3.77;;;21.10;88.10;;;;;;5060830;28;20467;-75
2022/06/19 04:39:16;;;;;;;17.27;4.80;;;21.10;88.60;;;;;;5061069;28;20428;-75
2022/06/19 04:42:02;;;;;;;19.03;4.07;;;21.10;89.60;;;;;;5053176;28;20444;-75
2022/06/19 04:44:48;;;;;;;17.53;4.33;;;21.10;90.10;;;;;;5059509;28;20474;-75
2022/06/19 04:47:35;;;;;;;12.90;3.23;;;21.20;89.40;;;;;;5060043;28;21002;-75
2022/06/19 04:50:21;;;;;;;8.10;3.70;;;21.20;90.40;;;;;;5059433;28;20431;-75
2022/06/19 04:53:07;;;;;;;11.10;4.10;;;21.30;90.40;;;;;;5050720;28;20459;-75
2022/06/19 04:55:53;;;;;;;13.70;4.00;;;21.40;90.90;;;;;;5052999;28;20459;-77
2022/06/19 04:58:39;;;;;;;12.03;4.03;;;21.50;86.20;;;;;;5055437;28;20427;-74
2022/06/19 05:01:27;;;;;;;12.03;3.67;;;21.60;89.10;;;;;;5057724;28;20478;-75
2022/06/19 05:04:15;;;;;;;18.03;4.10;;;21.80;90.20;;;;;;5055107;28;20541;-74
2022/06/19 05:07:00;;;;;;;13.10;4.73;;;21.90;90.50;;;;;;5076461;22;20494;-74
2022/06/19 05:09:46;;;;;;;16.30;3.77;;;22.10;90.90;;;;;;5072616;28;20438;-74
2022/06/19 05:12:32;;;;;;;8.57;3.87;;;22.10;90.90;;;;;;5070507;28;20446;-74
2022/06/19 05:15:17;;;;;;;11.63;3.90;;;22.20;90.90;;;;;;5086767;28;20422;-74
2022/06/19 05:18:03;;;;;;;10.47;3.60;;;22.30;90.40;;;;;;5074726;28;20446;-74
2022/06/19 05:21:01;;;;;;;14.83;4.40;;;22.40;91.90;;;;;;5072806;28;20984;-74
2022/06/19 05:23:48;;;;;;;11.40;3.57;;;22.50;91.20;;;;;;5066351;28;20493;-74
2022/06/19 05:26:35;;;;;;;16.90;4.30;;;22.70;91.60;;;;;;5072696;28;20447;-74
2022/06/19 05:29:21;;;;;;;13.80;3.83;;;22.70;91.40;;;;;;5077313;28;20435;-74
2022/06/19 05:32:08;;;;;;;14.60;3.97;;;22.90;91.40;;;;;;5067379;28;20443;-74
2022/06/19 05:34:54;;;;;;;13.33;3.50;;;23.00;91.30;;;;;;5077877;28;20493;-74
2022/06/19 05:37:40;;;;;;;10.90;3.70;;;23.10;91.10;;;;;;5070382;28;20527;-75
2022/06/19 05:40:26;;;;;;;15.53;4.40;;;23.20;91.10;;;;;;5081715;28;20415;-74
2022/06/19 05:43:13;;;;;;;25.37;4.50;;;23.30;91.90;;;;;;5068929;28;20851;-74
2022/06/19 05:46:01;;;;;;;16.80;3.93;;;23.50;91.80;;;;;;5076023;28;20434;-74
2022/06/19 05:48:47;;;;;;;8.07;3.73;;;23.60;91.40;;;;;;5073293;28;20419;-74
2022/06/19 05:51:33;;;;;;;18.20;5.13;;;23.70;90.90;;;;;;5063610;28;20521;-74
2022/06/19 05:54:21;;;;;;;12.53;4.10;;;23.80;91.40;;;;;;5074645;28;20783;-74
2022/06/19 05:57:06;;;;;;;21.77;4.10;;;23.90;91.00;;;;;;5074911;28;20806;-74
2022/06/19 05:59:54;;;;;;;13.53;3.97;;;24.00;88.80;;;;;;5066631;28;20950;-74
2022/06/19 06:02:41;;;;;;;15.63;5.30;;;24.20;86.70;;;;;;5065724;28;20493;-74
2022/06/19 06:05:26;;;;;;;8.60;4.10;;;24.40;86.90;;;;;;5080241;28;20445;-74
2022/06/19 06:08:14;;;;;;;14.87;4.57;;;24.50;86.20;;;;;;5084785;28;20457;-74
2022/06/19 06:11:01;;;;;;;25.17;5.60;;;24.70;85.40;;;;;;5074039;28;20443;-74
2022/06/19 06:13:48;;;;;;;11.20;4.70;;;24.80;70.90;;;;;;5066551;28;20427;-74
2022/06/19 06:16:33;;;;;;;13.70;5.97;;;25.00;73.60;;;;;;5068172;28;20497;-74
2022/06/19 06:19:19;;;;;;;20.60;6.33;;;25.30;72.20;;;;;;5073625;28;20427;-75
2022/06/19 06:22:05;;;;;;;24.77;7.40;;;25.60;65.20;;;;;;5072984;28;20470;-75
2022/06/19 06:24:51;;;;;;;18.63;6.60;;;25.80;57.50;;;;;;5071118;28;20585;-74
2022/06/19 06:27:38;;;;;;;16.50;6.40;;;26.10;54.80;;;;;;5069932;28;20445;-74
2022/06/19 06:30:24;;;;;;;16.33;7.07;;;26.30;50.90;;;;;;5070940;28;20481;-75
2022/06/19 06:33:10;;;;;;;22.30;7.03;;;26.70;48.30;;;;;;5077057;28;20801;-74
2022/06/19 06:35:57;;;;;;;16.67;7.07;;;26.90;47.00;;;;;;5071296;28;20430;-75
2022/06/19 06:38:42;;;;;;;19.10;6.77;;;27.00;46.50;;;;;;5069583;28;20930;-75
2022/06/19 06:41:28;;;;;;;17.87;7.00;;;27.10;44.40;;;;;;5069679;28;20443;-74
2022/06/19 06:44:16;;;;;;;14.97;6.00;;;27.30;44.50;;;;;;5072008;28;21006;-74
2022/06/19 06:47:02;;;;;;;23.00;6.60;;;27.40;44.10;;;;;;5075078;28;20443;-74
2022/06/19 06:49:47;;;;;;;16.67;6.53;;;27.40;42.70;;;;;;5071130;28;20930;-74
2022/06/19 06:52:33;;;;;;;18.33;7.07;;;27.50;43.30;;;;;;5068133;28;20818;-74
2022/06/19 06:55:18;;;;;;;14.23;6.57;;;27.60;41.40;;;;;;5070482;28;20539;-74
2022/06/19 06:58:04;;;;;;;19.70;6.97;;;27.70;40.30;;;;;;5074071;28;20446;-75
2022/06/19 07:00:52;;;;;;;26.67;6.60;;;27.80;40.50;;;;;;5069325;28;20978;-75
2022/06/19 07:03:38;;;;;;;17.03;7.17;;;27.90;41.00;;;;;;5068889;28;20512;-74
2022/06/19 07:06:25;;;;;;;12.20;7.80;;;28.00;40.50;;;;;;5072991;28;20455;-75
2022/06/19 07:09:11;;;;;;;22.33;6.20;;;28.00;41.00;;;;;;5076668;28;20418;-75
2022/06/19 07:11:56;;;;;;;17.83;6.13;;;28.20;39.80;;;;;;5076590;28;20806;-74
2022/06/19 07:14:42;;;;;;;20.27;6.73;;;28.20;38.40;;;;;;5070465;28;20570;-74
2022/06/19 07:17:29;;;;;;;22.27;6.50;;;28.30;38.10;;;;;;5076996;28;20540;-75
2022/06/19 07:20:14;;;;;;;14.73;7.70;;;28.40;37.00;;;;;;5070123;28;20809;-75
2022/06/19 07:23:00;;;;;;;27.00;7.57;;;28.40;37.70;;;;;;5071875;28;20561;-75
2022/06/19 07:25:47;;;;;;;15.13;7.70;;;28.40;36.90;;;;;;5071012;28;20927;-75
2022/06/19 07:28:32;;;;;;;14.23;7.73;;;28.50;37.90;;;;;;5079172;28;20438;-75
2022/06/19 07:31:18;;;;;;;21.50;8.63;;;28.50;37.90;;;;;;5070439;28;20509;-75
2022/06/19 07:34:05;;;;;;;15.23;7.23;;;28.60;38.20;;;;;;5080106;28;20442;-75
2022/06/19 07:36:52;;;;;;;11.30;7.20;;;28.70;37.50;;;;;;5072616;28;20825;-75
2022/06/19 07:39:37;;;;;;;15.57;7.37;;;28.70;37.00;;;;;;5068380;28;20973;-75
2022/06/19 07:42:23;;;;;;;15.97;7.80;;;28.80;37.40;;;;;;5062588;28;20442;-75
2022/06/19 07:45:09;;;;;;;12.90;7.77;;;28.90;37.30;;;;;;5072748;28;20478;-75
2022/06/19 07:50:59;;;;;;;17.37;8.37;;;29.00;36.30;;;;;;5063694;28;20519;-75
2022/06/19 07:53:45;;;;;;;18.13;7.50;;;29.00;39.70;;;;;;5072860;28;20919;-75
2022/06/19 07:56:31;;;;;;;23.60;7.60;;;29.10;38.30;;;;;;5072739;28;20640;-75
2022/06/19 07:59:16;;;;;;;15.70;7.47;;;29.10;37.10;;;;;;5070651;28;20433;-75
2022/06/19 08:02:02;;;;;;;12.33;7.73;;;29.20;36.80;;;;;;5070915;28;20447;-75
2022/06/19 08:04:47;;;;;;;13.03;7.60;;;29.30;37.60;;;;;;5069342;28;20512;-75
2022/06/19 08:07:35;;;;;;;13.87;10.17;;;29.40;39.70;;;;;;5078321;28;20450;-75
2022/06/19 08:10:23;;;;;;;16.07;8.17;;;29.50;36.20;;;;;;5072461;28;20442;-75
2022/06/19 08:13:08;;;;;;;14.83;7.80;;;29.50;37.90;;;;;;5078429;28;20422;-75
2022/06/19 08:15:57;;;;;;;22.87;7.73;;;29.50;35.60;;;;;;5070648;28;20429;-75
2022/06/19 08:18:43;;;;;;;20.63;7.93;;;29.60;35.80;;;;;;5069609;28;20429;-75
2022/06/19 08:21:28;;;;;;;21.90;8.20;;;29.60;35.60;;;;;;5072664;28;20501;-75
2022/06/19 08:24:15;;;;;;;14.40;7.20;;;29.70;36.60;;;;;;5072931;28;20785;-75
2022/06/19 08:27:03;;;;;;;14.40;7.53;;;29.70;35.50;;;;;;5070306;28;20535;-75
2022/06/19 08:29:48;;;;;;;13.73;8.30;;;29.80;34.50;;;;;;5067306;28;20442;-75
2022/06/19 08:32:34;;;;;;;17.50;7.60;;;29.80;37.30;;;;;;5067305;28;20421;-75
2022/06/19 08:35:20;;;;;;;18.53;8.23;;;29.90;34.50;;;;;;5076324;28;20916;-75
2022/06/19 08:38:09;;;;;;;18.80;8.00;;;30.00;36.10;;;;;;5074968;28;20448;-75
2022/06/19 08:41:22;;;;;;;13.70;7.23;;;30.10;34.80;;;;;;5064097;28;20446;-75
2022/06/19 08:44:27;;;;;;;18.57;7.47;;;30.10;34.70;;;;;;5074767;28;20470;-75
2022/06/19 08:47:27;;;;;;;12.43;7.83;;;30.00;34.60;;;;;;5075695;28;20434;-75
2022/06/19 08:50:22;;;;;;;13.83;8.30;;;30.00;34.60;;;;;;5063642;28;20482;-75
2022/06/19 08:53:25;;;;;;;21.00;8.10;;;30.00;34.30;;;;;;5081222;28;20829;-75
2022/06/19 08:56:18;;;;;;;15.03;7.43;;;30.00;34.60;;;;;;5079057;28;20442;-75
2022/06/19 08:59:12;;;;;;;13.53;7.30;;;30.10;36.10;;;;;;5077887;28;20419;-75
2022/06/19 09:02:14;;;;;;;17.30;8.20;;;30.10;34.70;;;;;;5077596;28;20943;-75
2022/06/19 09:08:29;;;;;;;13.10;8.17;;;30.30;34.90;;;;;;5074314;28;20466;-76
2022/06/19 09:11:33;;;;;;;15.03;8.90;;;30.40;35.00;;;;;;5070004;28;20906;-75
2022/06/19 09:14:33;;;;;;;14.03;8.20;;;30.50;34.70;;;;;;5080818;28;20418;-75
2022/06/19 09:17:26;;;;;;;13.37;7.27;;;30.60;37.60;;;;;;5079061;28;20516;-75
2022/06/19 09:20:27;;;;;;;18.10;7.50;;;30.70;36.30;;;;;;5071936;28;20943;-75
2022/06/19 09:23:36;;;;;;;29.27;8.13;;;30.80;34.20;;;;;;5075923;28;20497;-76
2022/06/19 09:26:27;;;;;;;21.93;8.30;;;30.80;31.90;;;;;;5074549;28;20423;-75
2022/06/19 09:29:16;;;;;;;14.93;7.60;;;30.90;34.10;;;;;;5073890;28;20473;-75
2022/06/19 09:32:08;;;;;;;11.03;7.17;;;30.90;32.20;;;;;;5075672;28;20427;-75
2022/06/19 09:34:59;;;;;;;12.33;7.70;;;30.90;32.30;;;;;;5079439;28;20415;-75
2022/06/19 09:37:50;;;;;;;17.57;7.70;;;31.00;31.90;;;;;;5072134;28;20441;-75
2022/06/19 09:40:39;;;;;;;11.57;7.70;;;31.10;30.30;;;;;;5073393;28;20959;-75
2022/06/19 09:43:32;;;;;;;14.80;6.93;;;31.10;32.50;;;;;;5078606;28;20529;-75
2022/06/19 09:46:22;;;;;;;11.33;7.53;;;31.20;30.00;;;;;;5076333;28;20478;-75
2022/06/19 09:49:14;;;;;;;14.90;8.07;;;31.30;30.00;;;;;;5072258;28;20998;-75
2022/06/19 09:52:06;;;;;;;12.97;7.77;;;31.30;31.20;;;;;;5080182;28;20438;-75
2022/06/19 09:54:57;;;;;;;19.67;8.03;;;31.40;30.90;;;;;;5067177;28;20536;-75
2022/06/19 09:57:49;;;;;;;10.80;7.40;;;31.50;29.80;;;;;;5067923;28;20450;-75
2022/06/19 10:00:38;;;;;;;11.93;7.13;;;31.60;29.60;;;;;;5066296;28;20470;-75
2022/06/19 10:03:29;;;;;;;16.30;6.93;;;31.70;29.30;;;;;;5081336;28;20951;-75
2022/06/19 10:06:21;;;;;;;13.83;7.07;;;31.70;29.40;;;;;;5072406;28;20470;-75
2022/06/19 10:09:20;;;;;;;14.23;7.50;;;31.80;29.10;;;;;;5072677;28;20529;-75
2022/06/19 10:12:11;;;;;;;13.17;7.70;;;31.90;30.40;;;;;;5079519;28;20613;-75
2022/06/19 10:15:02;;;;;;;16.47;7.20;;;32.00;30.00;;;;;;5073897;28;20534;-75
2022/06/19 10:17:56;;;;;;;11.20;7.70;;;32.00;29.90;;;;;;5071429;28;20589;-75
2022/06/19 10:20:51;;;;;;;25.60;6.60;;;32.10;28.30;;;;;;5077430;28;20575;-75
2022/06/19 10:23:58;;;;;;;16.27;6.90;;;32.20;28.70;;;;;;5079636;28;20496;-75
2022/06/19 10:26:50;;;;;;;13.17;6.63;;;32.30;28.20;;;;;;5070969;28;20931;-75
2022/06/19 10:29:49;;;;;;;14.63;7.17;;;32.30;28.50;;;;;;5064472;28;20590;-76
2022/06/19 10:32:52;;;;;;;16.03;6.87;;;32.40;27.10;;;;;;5069105;28;20418;-75
2022/06/19 10:35:44;;;;;;;14.03;6.50;;;32.40;27.60;;;;;;5079209;28;20426;-75
2022/06/19 10:38:45;;;;;;;11.20;6.30;;;32.50;27.30;;;;;;5076838;28;20560;-75
2022/06/19 10:45:11;;;;;;;18.87;7.10;;;32.70;26.90;;;;;;5070010;28;20647;-75
2022/06/19 10:48:15;;;;;;;13.87;8.80;;;32.70;27.30;;;;;;5064223;28;21025;-75
2022/06/19 10:51:13;;;;;;;13.40;6.73;;;32.80;27.80;;;;;;5071239;28;20439;-75
2022/06/19 10:54:22;;;;;;;17.00;7.20;;;32.80;26.10;;;;;;5079112;28;20468;-75
2022/06/19 10:57:14;;;;;;;11.93;6.20;;;32.90;26.50;;;;;;5073694;28;20533;-75
2022/06/19 11:00:00;;;;;;;11.00;6.93;;;33.00;26.20;;;;;;5068433;28;20446;-75
2022/06/19 11:06:14;;;;;;;26.27;6.87;;;33.20;26.20;;;;;;5009139;28;21060;-75
2022/06/19 11:09:04;;;;;;;14.13;7.20;;;33.20;25.50;;;;;;5066211;22;20479;-74
2022/06/19 11:11:54;;;;;;;15.23;7.63;;;33.20;24.90;;;;;;5042023;28;20427;-75
2022/06/19 11:14:45;;;;;;;14.57;6.83;;;33.20;26.00;;;;;;5051001;28;20428;-75
2022/06/19 11:17:34;;;;;;;13.00;6.40;;;33.30;26.10;;;;;;5049559;28;20498;-74
2022/06/19 11:20:26;;;;;;;19.57;7.77;;;33.40;25.70;;;;;;5050542;28;20503;-75
2022/06/19 11:23:24;;;;;;;17.10;7.40;;;33.50;25.50;;;;;;5042392;28;20420;-74
2022/06/19 11:26:13;;;;;;;15.30;7.53;;;33.50;25.40;;;;;;5054077;28;20472;-74
2022/06/19 11:29:02;;;;;;;19.93;6.80;;;33.60;26.40;;;;;;5048479;28;20518;-74
2022/06/19 11:32:06;;;;;;;17.00;7.00;;;33.60;25.50;;;;;;5038011;28;20443;-74
2022/06/19 11:35:03;;;;;;;15.80;6.93;;;33.70;26.50;;;;;;5048551;28;20924;-74
2022/06/19 11:37:52;;;;;;;22.40;7.17;;;33.80;26.10;;;;;;5042031;28;20617;-76
2022/06/19 11:40:42;;;;;;;21.83;6.70;;;33.80;26.50;;;;;;5043149;28;21064;-74
2022/06/19 11:43:31;;;;;;;29.90;8.67;;;33.90;27.50;;;;;;5050863;28;20420;-75
2022/06/19 11:46:19;;;;;;;15.27;7.90;;;33.80;24.60;;;;;;5050451;28;20462;-72
2022/06/19 11:49:26;;;;;;;17.90;7.60;;;33.70;24.50;;;;;;5046609;28;20549;-72
2022/06/19 11:52:19;;;;;;;15.77;7.30;;;33.70;24.20;;;;;;5047374;28;20447;-72
2022/06/19 11:55:15;;;;;;;15.27;7.07;;;33.80;24.60;;;;;;5055128;28;20423;-72
2022/06/19 11:58:14;;;;;;;16.83;6.57;;;33.80;25.50;;;;;;5044612;28;20467;-72
2022/06/19 12:01:07;;;;;;;16.40;6.60;;;34.00;24.70;;;;;;5044151;28;20534;-71
2022/06/19 12:03:56;;;;;;;16.03;8.27;;;34.10;24.80;;;;;;5046253;28;21094;-72
2022/06/19 12:06:45;;;;;;;11.67;6.70;;;34.10;24.70;;;;;;5042133;28;20483;-72
2022/06/19 12:09:36;;;;;;;21.60;6.27;;;34.20;25.70;;;;;;5042827;28;20537;-72
2022/06/19 12:12:23;;;;;;;15.40;6.80;;;34.30;24.90;;;;;;5045679;28;20490;-72
2022/06/19 12:15:25;;;;;;;19.70;6.30;;;34.40;23.80;;;;;;5050095;28;20927;-72
2022/06/19 12:18:17;;;;;;;21.20;7.40;;;34.40;24.30;;;;;;5042246;28;20481;-71
2022/06/19 12:21:06;;;;;;;18.63;7.07;;;34.40;24.00;;;;;;5043843;28;20494;-71
2022/06/19 12:24:01;;;;;;;17.47;7.13;;;34.50;23.90;;;;;;5043857;28;20447;-72
2022/06/19 12:26:50;;;;;;;20.13;6.97;;;34.30;24.20;;;;;;5043093;28;20479;-72
2022/06/19 12:29:43;;;;;;;19.03;7.43;;;34.20;24.10;;;;;;5047252;28;20451;-71
2022/06/19 12:32:35;;;;;;;13.93;7.00;;;34.30;23.80;;;;;;5049576;28;20814;-72
2022/06/19 12:35:32;;;;;;;14.27;6.87;;;34.30;24.30;;;;;;5051333;28;20412;-72
2022/06/19 12:38:21;;;;;;;12.67;7.53;;;34.30;24.00;;;;;;5048860;28;20951;-73
2022/06/19 12:41:16;;;;;;;13.93;6.67;;;34.30;24.50;;;;;;5053738;28;20447;-72
2022/06/19 12:44:14;;;;;;;14.77;7.13;;;34.40;23.80;;;;;;5046048;28;20447;-73
2022/06/19 12:47:10;;;;;;;10.50;5.93;;;34.40;24.00;;;;;;5043811;28;20470;-73
2022/06/19 12:50:17;;;;;;;12.70;7.20;;;34.50;24.10;;;;;;5050291;28;20451;-73
2022/06/19 12:53:25;;;;;;;14.77;7.07;;;34.70;23.20;;;;;;5047305;28;20848;-73
2022/06/19 12:56:19;;;;;;;17.77;7.90;;;34.80;25.10;;;;;;5046950;28;20443;-73
2022/06/19 12:59:23;;;;;;;14.20;7.07;;;34.80;23.40;;;;;;5047698;28;20821;-73
2022/06/19 13:02:16;;;;;;;13.37;6.50;;;34.90;24.90;;;;;;5047981;28;20443;-73
2022/06/19 13:05:15;;;;;;;20.10;6.50;;;34.90;23.60;;;;;;5050189;28;20502;-72
2022/06/19 13:08:10;;;;;;;22.93;7.20;;;35.10;23.10;;;;;;5042807;28;20528;-73
2022/06/19 13:11:04;;;;;;;17.17;6.80;;;35.20;24.00;;;;;;5047835;28;20520;-73
2022/06/19 13:14:18;;;;;;;23.17;7.60;;;35.30;23.00;;;;;;5046685;28;20451;-73
2022/06/19 13:17:10;;;;;;;14.03;6.30;;;35.30;22.80;;;;;;5030322;28;20444;-72
2022/06/19 13:20:23;;;;;;;19.73;6.80;;;35.40;22.30;;;;;;5046877;28;21015;-73
2022/06/19 13:23:18;;;;;;;17.03;6.40;;;35.00;21.50;;;;;;5049045;28;20971;-72
2022/06/19 13:27:10;;;;;;;16.50;6.57;;;35.10;22.10;;;;;;5045275;28;20487;-73
2022/06/19 13:29:31;;;;;;;16.80;6.77;;;35.00;21.40;;;;;;5047474;28;20599;-73
2022/06/19 13:32:27;;;;;;;17.43;6.30;;;35.10;22.60;;;;;;5048384;28;20454;-73
2022/06/19 13:35:35;;;;;;;17.37;7.00;;;35.30;23.90;;;;;;5046898;28;20450;-73
2022/06/19 13:38:48;;;;;;;17.20;7.43;;;35.50;22.00;;;;;;5045972;28;21062;-73
2022/06/19 13:41:45;;;;;;;16.00;7.70;;;35.80;21.90;;;;;;5050263;28;20443;-73
2022/06/19 13:44:42;;;;;;;18.40;7.20;;;35.70;21.60;;;;;;5049595;28;20459;-72
2022/06/19 13:47:32;;;;;;;20.07;6.67;;;35.70;22.20;;;;;;5046218;28;20459;-73
2022/06/19 13:50:26;;;;;;;13.57;6.30;;;35.70;21.40;;;;;;5049238;28;20443;-73
2022/06/19 13:53:22;;;;;;;19.37;6.37;;;35.70;21.80;;;;;;5044273;28;20447;-73
2022/06/19 13:56:16;;;;;;;15.80;6.30;;;35.60;20.20;;;;;;5040515;28;20444;-73
2022/06/19 13:59:35;;;;;;;21.93;6.23;;;35.40;19.90;;;;;;5044887;28;20836;-73
2022/06/19 14:02:32;;;;;;;26.90;6.80;;;35.40;20.30;;;;;;5040972;28;20813;-73
2022/06/19 14:05:28;;;;;;;18.20;6.43;;;35.60;22.10;;;;;;5049187;28;20454;-73
2022/06/19 14:08:30;;;;;;;17.80;6.30;;;35.80;21.10;;;;;;5045790;28;20487;-72
2022/06/19 14:11:19;;;;;;;14.70;6.03;;;35.70;19.80;;;;;;5048951;28;20499;-73
2022/06/19 14:14:07;;;;;;;20.03;5.37;;;35.60;20.20;;;;;;5046342;28;20451;-73
2022/06/19 14:16:59;;;;;;;13.50;5.67;;;35.60;19.40;;;;;;5040167;28;20447;-72
2022/06/19 14:19:50;;;;;;;14.93;6.20;;;35.50;19.70;;;;;;5048773;28;20444;-72
2022/06/19 14:22:44;;;;;;;20.03;6.37;;;35.50;19.30;;;;;;5047903;28;20448;-72
2022/06/19 14:25:38;;;;;;;13.53;5.60;;;35.40;19.00;;;;;;5046676;28;20451;-73
2022/06/19 14:28:29;;;;;;;18.13;5.97;;;35.40;19.20;;;;;;5048023;28;21148;-73
2022/06/19 14:31:18;;;;;;;16.50;6.17;;;35.40;20.40;;;;;;5049961;28;20450;-73
2022/06/19 14:34:03;;;;;;;25.80;6.50;;;35.40;19.60;;;;;;5045982;28;20522;-73
2022/06/19 14:36:49;;;;;;;15.37;5.80;;;35.50;20.20;;;;;;5038044;28;20519;-73
2022/06/19 14:39:39;;;;;;;18.63;5.83;;;35.70;20.50;;;;;;5049571;28;20819;-73
2022/06/19 14:42:25;;;;;;;14.53;6.10;;;35.80;21.10;;;;;;5049925;28;20551;-72
2022/06/19 14:45:15;;;;;;;12.10;5.77;;;35.80;19.20;;;;;;5045799;28;20502;-73
2022/06/19 14:48:08;;;;;;;19.03;6.03;;;35.70;19.50;;;;;;5048761;28;20484;-73